createdAt,value
2023-04-18T00:00:49.396Z,7.07
2023-04-18T00:03:20.873Z,7.78
2023-04-18T00:05:49.921Z,7.68
2023-04-18T00:08:18.376Z,8.13
2023-04-18T00:10:46.876Z,7.13
2023-04-18T00:13:18.503Z,7.80
2023-04-18T00:15:47.289Z,7.45
2023-04-18T00:18:17.245Z,8.25
2023-04-18T00:20:47.160Z,8.18
2023-04-18T00:23:16.405Z,7.88
2023-04-18T00:25:44.828Z,8.32
2023-04-18T00:28:13.312Z,8.55
2023-04-18T00:30:41.794Z,8.38
2023-04-18T00:33:10.245Z,7.60
2023-04-18T00:35:39.175Z,8.40
2023-04-18T00:38:09.001Z,8.25
2023-04-18T00:40:37.871Z,8.52
2023-04-18T00:43:06.330Z,8.20
2023-04-18T00:45:34.755Z,8.50
2023-04-18T00:48:03.436Z,8.02
2023-04-18T00:50:32.359Z,8.35
2023-04-18T00:53:00.895Z,8.05
2023-04-18T00:55:30.787Z,8.15
2023-04-18T00:57:59.266Z,9.02
2023-04-18T01:00:27.745Z,8.80
2023-04-18T01:02:56.594Z,9.00
2023-04-18T01:05:25.377Z,8.10
2023-04-18T01:07:58.715Z,8.45
2023-04-18T01:10:27.301Z,8.43
2023-04-18T01:13:11.161Z,8.52
2023-04-18T01:15:43.580Z,8.32
2023-04-18T01:18:13.216Z,8.48
2023-04-18T01:20:42.611Z,8.10
2023-04-18T01:23:11.640Z,7.68
2023-04-18T01:25:41.517Z,8.25
2023-04-18T01:28:09.958Z,7.93
2023-04-18T01:30:38.864Z,8.30
2023-04-18T01:33:07.516Z,8.65
2023-04-18T01:35:36.022Z,8.95
2023-04-18T01:38:04.460Z,8.50
2023-04-18T01:40:32.956Z,8.65
2023-04-18T01:43:02.827Z,8.02
2023-04-18T01:45:31.261Z,8.27
2023-04-18T01:47:59.724Z,8.15
2023-04-18T01:50:28.229Z,7.70
2023-04-18T01:52:56.643Z,8.63
2023-04-18T01:55:25.071Z,7.45
2023-04-18T01:57:53.509Z,7.68
2023-04-18T02:00:23.653Z,8.25
2023-04-18T02:02:52.144Z,8.18
2023-04-18T02:05:20.827Z,7.80
2023-04-18T02:07:50.264Z,8.38
2023-04-18T02:10:18.778Z,7.95
2023-04-18T02:12:47.239Z,7.70
2023-04-18T02:15:15.639Z,7.32
2023-04-18T02:17:45.632Z,8.02
2023-04-18T02:20:15.745Z,7.40
2023-04-18T02:22:45.682Z,6.72
2023-04-18T02:25:14.113Z,7.13
2023-04-18T02:27:42.492Z,6.95
2023-04-18T02:30:11.463Z,7.38
2023-04-18T02:32:39.955Z,7.38
2023-04-18T02:35:10.258Z,7.35
2023-04-18T02:37:38.648Z,7.47
2023-04-18T02:40:07.651Z,6.70
2023-04-18T02:42:36.426Z,7.30
2023-04-18T02:45:04.846Z,6.85
2023-04-18T02:47:37.723Z,8.18
2023-04-18T02:50:13.765Z,7.50
2023-04-18T02:52:42.612Z,7.55
2023-04-18T02:55:11.252Z,6.63
2023-04-18T02:57:39.623Z,6.30
2023-04-18T03:00:09.402Z,7.10
2023-04-18T03:02:37.885Z,6.88
2023-04-18T03:05:06.969Z,7.20
2023-04-18T03:07:36.816Z,6.88
2023-04-18T03:10:05.428Z,6.90
2023-04-18T03:12:33.831Z,7.03
2023-04-18T03:15:02.244Z,6.88
2023-04-18T03:17:30.915Z,7.35
2023-04-18T03:19:59.477Z,6.82
2023-04-18T03:22:28.203Z,6.97
2023-04-18T03:25:00.043Z,6.82
2023-04-18T03:27:28.634Z,6.63
2023-04-18T03:29:57.057Z,6.68
2023-04-18T03:32:25.878Z,6.90
2023-04-18T03:34:54.337Z,6.78
2023-04-18T03:37:22.911Z,6.90
2023-04-18T03:39:51.326Z,6.88
2023-04-18T03:42:21.133Z,7.18
2023-04-18T03:44:49.571Z,6.65
2023-04-18T03:47:17.966Z,6.40
2023-04-18T03:49:46.370Z,6.53
2023-04-18T03:52:16.021Z,6.93
2023-04-18T03:54:44.458Z,7.15
2023-04-18T03:57:12.894Z,6.50
2023-04-18T03:59:43.030Z,6.40
2023-04-18T04:02:11.542Z,6.78
2023-04-18T04:04:40.032Z,7.07
2023-04-18T04:07:08.463Z,6.75
2023-04-18T04:09:36.892Z,6.57
2023-04-18T04:12:05.373Z,7.10
2023-04-18T04:14:33.842Z,7.18
2023-04-18T04:17:03.667Z,7.00
2023-04-18T04:19:32.120Z,7.20
2023-04-18T04:22:00.527Z,7.00
2023-04-18T04:24:29.551Z,6.65
2023-04-18T04:26:58.896Z,7.43
2023-04-18T04:29:29.069Z,7.20
2023-04-18T04:31:59.206Z,7.25
2023-04-18T04:34:29.112Z,7.22
2023-04-18T04:36:57.531Z,7.55
2023-04-18T04:39:26.080Z,7.88
2023-04-18T04:41:54.534Z,8.80
2023-04-18T04:44:25.923Z,8.27
2023-04-18T04:46:54.667Z,8.35
2023-04-18T04:49:23.649Z,8.40
2023-04-18T04:51:53.957Z,8.80
2023-04-18T04:54:22.499Z,7.53
2023-04-18T04:56:51.263Z,8.20
2023-04-18T04:59:19.810Z,8.85
2023-04-18T05:01:48.575Z,9.20
2023-04-18T05:04:18.500Z,9.18
2023-04-18T05:06:47.743Z,9.02
2023-04-18T05:09:18.174Z,9.07
2023-04-18T05:11:46.865Z,9.27
2023-04-18T05:14:16.011Z,10.07
2023-04-18T05:16:44.650Z,10.23
2023-04-18T05:19:13.254Z,9.45
2023-04-18T05:21:41.812Z,9.18
2023-04-18T05:24:10.303Z,10.38
2023-04-18T05:26:40.300Z,10.00
2023-04-18T05:29:08.754Z,9.60
2023-04-18T05:31:37.241Z,9.68
2023-04-18T05:34:06.037Z,10.10
2023-04-18T05:36:34.501Z,10.25
2023-04-18T05:39:02.977Z,10.80
2023-04-18T05:41:31.602Z,10.15
2023-04-18T05:44:05.463Z,9.80
2023-04-18T05:46:34.465Z,10.07
2023-04-18T05:49:03.617Z,10.80
2023-04-18T05:51:32.127Z,9.95
2023-04-18T05:54:00.586Z,10.43
2023-04-18T05:56:29.111Z,9.98
2023-04-18T05:58:57.578Z,9.00
2023-04-18T06:01:27.542Z,11.02
2023-04-18T06:03:56.187Z,10.35
2023-04-18T06:06:24.717Z,9.82
2023-04-18T06:08:53.164Z,10.23
2023-04-18T06:11:21.756Z,10.50
2023-04-18T06:13:50.190Z,10.63
2023-04-18T06:16:18.694Z,10.77
2023-04-18T06:18:48.596Z,9.82
2023-04-18T06:21:17.070Z,10.25
2023-04-18T06:23:45.519Z,11.40
2023-04-18T06:26:14.061Z,10.43
2023-04-18T06:31:18.594Z,10.77
2023-04-18T06:33:47.081Z,10.60
2023-04-18T06:36:15.492Z,11.07
2023-04-18T06:38:43.950Z,10.32
2023-04-18T06:41:12.442Z,10.32
2023-04-18T06:43:49.099Z,11.38
2023-04-18T06:46:29.544Z,9.77
2023-04-18T06:48:58.135Z,11.25
2023-04-18T06:51:27.276Z,10.05
2023-04-18T06:53:55.726Z,9.68
2023-04-18T06:56:24.201Z,10.45
2023-04-18T06:58:53.611Z,9.50
2023-04-18T07:01:22.069Z,9.88
2023-04-18T07:03:52.030Z,9.60
2023-04-18T07:06:20.570Z,9.70
2023-04-18T07:08:49.061Z,9.88
2023-04-18T07:11:18.561Z,9.30
2023-04-18T07:13:48.765Z,10.00
2023-04-18T07:16:17.182Z,10.45
2023-04-18T07:18:45.678Z,10.70
2023-04-18T07:21:15.730Z,11.02
2023-04-18T07:23:44.312Z,10.40
2023-04-18T07:26:13.659Z,10.85
2023-04-18T07:28:42.181Z,10.98
2023-04-18T07:31:11.686Z,11.90
2023-04-18T07:33:40.321Z,11.82
2023-04-18T07:36:09.188Z,11.85
2023-04-18T07:38:39.013Z,11.85
2023-04-18T07:41:07.415Z,11.27
2023-04-18T07:43:36.009Z,11.00
2023-04-18T07:46:04.523Z,11.10
2023-04-18T07:48:33.045Z,11.57
2023-04-18T07:51:01.552Z,10.63
2023-04-18T07:53:30.328Z,11.38
2023-04-18T07:56:00.304Z,10.70
2023-04-18T07:58:29.195Z,10.57
2023-04-18T08:00:57.697Z,9.50
2023-04-18T08:03:27.769Z,10.15
2023-04-18T08:05:56.768Z,10.98
2023-04-18T08:08:25.340Z,11.38
2023-04-18T08:10:53.936Z,10.82
2023-04-18T08:13:23.929Z,11.65
2023-04-18T08:15:52.834Z,12.05
2023-04-18T08:18:22.942Z,12.00
2023-04-18T08:20:51.385Z,11.50
2023-04-18T08:23:20.315Z,11.55
2023-04-18T08:25:48.973Z,12.82
2023-04-18T08:28:17.413Z,11.77
2023-04-18T08:30:49.134Z,13.43
2023-04-18T08:33:17.591Z,13.63
2023-04-18T08:35:46.166Z,13.35
2023-04-18T08:38:14.933Z,13.80
2023-04-18T08:40:45.094Z,13.35
2023-04-18T08:43:15.173Z,13.48
2023-04-18T08:45:44.271Z,13.93
2023-04-18T08:48:15.340Z,13.75
2023-04-18T08:50:43.916Z,12.48
2023-04-18T08:53:12.770Z,13.15
2023-04-18T08:55:42.040Z,12.75
2023-04-18T09:00:52.990Z,13.88
2023-04-18T09:03:39.159Z,13.43
2023-04-18T09:06:09.465Z,12.63
2023-04-18T09:08:38.251Z,12.68
2023-04-18T09:11:26.142Z,12.38
2023-04-18T09:13:56.389Z,13.13
2023-04-18T09:16:27.786Z,12.88
2023-04-18T09:19:13.127Z,12.48
2023-04-18T09:21:42.761Z,13.18
2023-04-18T09:24:23.992Z,13.38
2023-04-18T09:26:54.098Z,14.20
2023-04-18T09:29:23.575Z,12.77
2023-04-18T09:32:03.865Z,13.43
2023-04-18T09:34:34.042Z,13.15
2023-04-18T09:37:09.522Z,13.18
2023-04-18T09:39:39.143Z,13.20
2023-04-18T09:42:08.039Z,13.30
2023-04-18T09:44:36.660Z,13.35
2023-04-18T09:47:08.030Z,12.65
2023-04-18T09:49:36.713Z,13.10
2023-04-18T09:52:07.567Z,13.30
2023-04-18T09:54:38.622Z,13.90
2023-04-18T09:57:09.403Z,13.45
2023-04-18T09:59:42.034Z,14.23
2023-04-18T10:02:16.669Z,13.38
2023-04-18T10:04:45.623Z,13.63
2023-04-18T10:07:15.002Z,13.68
2023-04-18T10:09:44.643Z,14.30
2023-04-18T10:12:13.706Z,13.82
2023-04-18T10:14:44.424Z,13.77
2023-04-18T10:17:16.093Z,13.60
2023-04-18T10:19:46.359Z,12.48
2023-04-18T10:22:14.914Z,12.65
2023-04-18T10:24:54.179Z,13.00
2023-04-18T10:27:37.531Z,12.98
2023-04-18T10:30:08.022Z,13.10
2023-04-18T10:32:38.938Z,13.10
2023-04-18T10:35:08.328Z,12.75
2023-04-18T10:37:36.819Z,11.63
2023-04-18T10:40:07.074Z,12.85
2023-04-18T10:42:54.043Z,13.35
2023-04-18T10:45:23.206Z,12.73
2023-04-18T10:47:53.210Z,12.80
2023-04-18T10:50:21.799Z,12.90
2023-04-18T10:52:50.422Z,13.38
2023-04-18T10:55:20.332Z,13.18
2023-04-18T10:57:50.467Z,13.45
2023-04-18T11:00:21.547Z,13.43
2023-04-18T11:02:51.286Z,13.20
2023-04-18T11:05:25.570Z,12.88
2023-04-18T11:07:54.228Z,12.70
2023-04-18T11:10:23.797Z,13.10
2023-04-18T11:12:52.421Z,12.73
2023-04-18T11:15:22.536Z,12.93
2023-04-18T11:17:58.067Z,13.07
2023-04-18T11:20:28.115Z,11.30
2023-04-18T11:22:57.369Z,12.80
2023-04-18T11:25:27.168Z,12.52
2023-04-18T11:27:56.245Z,12.55
2023-04-18T11:30:24.791Z,12.00
2023-04-18T11:32:54.165Z,11.77
2023-04-18T11:35:22.872Z,11.20
2023-04-18T11:37:52.726Z,11.30
2023-04-18T11:40:21.230Z,12.10
2023-04-18T11:42:49.787Z,12.18
2023-04-18T11:45:18.671Z,11.93
2023-04-18T11:47:48.183Z,11.85
2023-04-18T11:50:16.856Z,11.55
2023-04-18T11:52:52.048Z,11.00
2023-04-18T11:55:23.003Z,11.73
2023-04-18T11:57:52.621Z,12.30
2023-04-18T12:00:22.529Z,11.68
2023-04-18T12:02:52.329Z,11.88
2023-04-18T12:05:28.197Z,12.27
2023-04-18T12:07:56.912Z,12.68
2023-04-18T12:10:28.525Z,12.48
2023-04-18T12:12:58.575Z,12.38
2023-04-18T12:15:28.360Z,13.20
2023-04-18T12:18:00.469Z,12.85
2023-04-18T12:20:34.857Z,12.88
2023-04-18T12:23:03.523Z,13.32
2023-04-18T12:25:34.915Z,12.55
2023-04-18T12:28:04.701Z,12.23
2023-04-18T12:30:35.953Z,12.32
2023-04-18T12:33:06.714Z,12.23
2023-04-18T12:35:35.216Z,12.88
2023-04-18T12:38:04.512Z,12.60
2023-04-18T12:40:34.348Z,12.52
2023-04-18T12:43:03.927Z,12.57
2023-04-18T12:45:33.655Z,13.23
2023-04-18T12:48:02.155Z,12.80
2023-04-18T12:50:30.833Z,12.88
2023-04-18T12:53:00.351Z,12.77
2023-04-18T12:55:30.205Z,12.32
2023-04-18T12:58:00.053Z,11.65
2023-04-18T13:00:30.376Z,12.40
2023-04-18T13:02:59.496Z,12.23
2023-04-18T13:05:30.897Z,11.73
2023-04-18T13:10:33.393Z,12.65
2023-04-18T13:13:03.264Z,12.82
2023-04-18T13:15:31.821Z,13.30
2023-04-18T13:18:04.674Z,14.00
2023-04-18T13:20:33.555Z,13.48
2023-04-18T13:23:02.194Z,13.65
2023-04-18T13:25:30.754Z,13.45
2023-04-18T13:28:00.841Z,14.48
2023-04-18T13:30:31.783Z,16.42
2023-04-18T13:33:00.386Z,15.80
2023-04-18T13:35:28.924Z,16.00
2023-04-18T13:37:57.361Z,13.82
2023-04-18T13:40:29.093Z,15.55
2023-04-18T13:42:57.554Z,13.63
2023-04-18T13:45:26.061Z,14.30
2023-04-18T13:47:56.078Z,13.25
2023-04-18T13:50:24.813Z,13.68
2023-04-18T13:52:54.672Z,12.32
2023-04-18T13:55:23.316Z,14.48
2023-04-18T13:57:52.139Z,13.38
2023-04-18T14:00:21.071Z,13.25
2023-04-18T14:02:49.693Z,13.73
2023-04-18T14:05:19.798Z,13.38
2023-04-18T14:07:48.877Z,12.88
2023-04-18T14:10:17.355Z,13.00
2023-04-18T14:12:45.849Z,13.18
2023-04-18T14:15:14.285Z,13.00
2023-04-18T14:17:45.279Z,12.43
2023-04-18T14:20:15.684Z,11.65
2023-04-18T14:22:45.567Z,12.18
2023-04-18T14:25:14.341Z,12.82
2023-04-18T14:27:42.757Z,12.63
2023-04-18T14:30:13.012Z,13.15
2023-04-18T14:32:41.525Z,12.23
2023-04-18T14:35:10.604Z,12.82
2023-04-18T14:37:39.030Z,12.20
2023-04-18T14:40:11.227Z,11.32
2023-04-18T14:42:39.865Z,12.70
2023-04-18T14:45:11.242Z,11.15
2023-04-18T14:47:40.133Z,12.05
2023-04-18T14:50:09.775Z,11.82
2023-04-18T14:52:38.201Z,10.93
2023-04-18T14:55:07.016Z,11.75
2023-04-18T14:57:37.785Z,13.07
2023-04-18T15:00:07.536Z,13.10
2023-04-18T15:02:36.237Z,13.50
2023-04-18T15:05:07.481Z,13.15
2023-04-18T15:07:37.916Z,13.80
2023-04-18T15:10:12.539Z,13.95
2023-04-18T15:12:42.734Z,12.38
2023-04-18T15:15:11.628Z,13.52
2023-04-18T15:17:42.668Z,13.13
2023-04-18T15:20:11.253Z,12.77
2023-04-18T15:22:39.757Z,12.38
2023-04-18T15:25:08.770Z,12.15
2023-04-18T15:27:37.376Z,12.30
2023-04-18T15:30:08.336Z,12.57
2023-04-18T15:32:36.921Z,13.55
2023-04-18T15:35:06.627Z,12.98
2023-04-18T15:37:35.046Z,13.13
2023-04-18T15:40:06.114Z,12.55
2023-04-18T15:42:34.582Z,11.90
2023-04-18T15:45:03.162Z,11.63
2023-04-18T15:47:34.743Z,12.95
2023-04-18T15:50:03.955Z,11.82
2023-04-18T15:52:32.375Z,12.55
2023-04-18T15:55:01.092Z,12.25
2023-04-18T15:57:30.488Z,10.88
2023-04-18T15:59:59.781Z,12.02
2023-04-18T16:02:28.643Z,11.20
2023-04-18T16:04:58.637Z,11.70
2023-04-18T16:07:27.103Z,11.77
2023-04-18T16:09:55.700Z,11.75
2023-04-18T16:12:24.274Z,10.73
2023-04-18T16:14:52.743Z,11.98
2023-04-18T16:17:21.266Z,11.10
2023-04-18T16:19:49.807Z,11.20
2023-04-18T16:22:19.743Z,11.38
2023-04-18T16:24:48.186Z,12.20
2023-04-18T16:27:16.704Z,12.80
2023-04-18T16:29:46.105Z,11.77
2023-04-18T16:32:14.589Z,12.23
2023-04-18T16:34:43.060Z,10.90
2023-04-18T16:37:11.476Z,11.88
2023-04-18T16:39:41.442Z,11.38
2023-04-18T16:44:39.444Z,11.35
2023-04-18T16:49:47.736Z,12.27
2023-04-18T16:52:19.321Z,12.10
2023-04-18T16:54:47.853Z,11.98
2023-04-18T16:57:17.675Z,12.13
2023-04-18T16:59:47.354Z,12.32
2023-04-18T17:02:16.370Z,12.32
2023-04-18T17:04:46.348Z,13.25
2023-04-18T17:07:14.817Z,12.40
2023-04-18T17:09:43.311Z,12.13
2023-04-18T17:12:11.816Z,11.88
2023-04-18T17:14:40.334Z,11.23
2023-04-18T17:17:08.784Z,11.88
2023-04-18T17:19:37.529Z,12.10
2023-04-18T17:22:07.402Z,12.00
2023-04-18T17:24:35.851Z,12.10
2023-04-18T17:27:04.468Z,11.85
2023-04-18T17:29:32.942Z,11.95
2023-04-18T17:32:01.426Z,13.02
2023-04-18T17:34:29.910Z,12.52
2023-04-18T17:36:58.335Z,12.75
2023-04-18T17:39:28.326Z,12.93
2023-04-18T17:41:57.758Z,12.60
2023-04-18T17:44:26.275Z,12.07
2023-04-18T17:46:54.710Z,11.38
2023-04-18T17:49:23.254Z,12.82
2023-04-18T17:51:52.070Z,13.52
2023-04-18T17:54:20.529Z,13.55
2023-04-18T17:56:50.401Z,13.05
2023-04-18T17:59:18.920Z,12.93
2023-04-18T18:01:47.575Z,13.40
2023-04-18T18:04:16.366Z,12.98
2023-04-18T18:06:54.693Z,13.35
2023-04-18T18:09:23.153Z,12.55
2023-04-18T18:11:54.620Z,13.02
2023-04-18T18:14:24.402Z,12.70
2023-04-18T18:16:52.937Z,12.90
2023-04-18T18:19:21.580Z,13.65
2023-04-18T18:21:50.693Z,13.68
2023-04-18T18:24:19.720Z,13.63
2023-04-18T18:26:50.991Z,13.90
2023-04-18T18:31:40.609Z,13.95
2023-04-18T18:34:09.249Z,14.15
2023-04-18T18:36:37.727Z,14.30
2023-04-18T18:39:06.324Z,14.02
2023-04-18T18:41:34.780Z,12.98
2023-04-18T18:44:03.362Z,13.98
2023-04-18T18:46:31.932Z,13.13
2023-04-18T18:49:02.036Z,13.02
2023-04-18T18:51:31.058Z,12.57
2023-04-18T18:53:59.604Z,13.45
2023-04-18T18:56:28.112Z,14.18
2023-04-18T18:58:56.722Z,12.95
2023-04-18T19:01:25.267Z,13.68
2023-04-18T19:03:54.116Z,13.68
2023-04-18T19:06:24.099Z,14.38
2023-04-18T19:08:52.570Z,14.40
2023-04-18T19:11:21.063Z,14.25
2023-04-18T19:13:49.605Z,14.40
2023-04-18T19:16:18.120Z,13.63
2023-04-18T19:18:49.121Z,14.10
2023-04-18T19:21:17.693Z,13.32
2023-04-18T19:23:47.789Z,13.85
2023-04-18T19:26:16.393Z,13.43
2023-04-18T19:28:44.850Z,13.23
2023-04-18T19:31:13.355Z,13.60
2023-04-18T19:33:41.843Z,14.45
2023-04-18T19:36:10.451Z,13.32
2023-04-18T19:38:38.920Z,13.55
2023-04-18T19:41:08.885Z,13.00
2023-04-18T19:43:38.392Z,13.35
2023-04-18T19:46:06.861Z,13.68
2023-04-18T19:48:35.454Z,13.43
2023-04-18T19:51:04.812Z,14.15
2023-04-18T19:53:33.343Z,13.55
2023-04-18T19:56:01.821Z,13.23
2023-04-18T19:58:39.829Z,13.40
2023-04-18T20:01:09.993Z,12.63
2023-04-18T20:03:39.133Z,13.82
2023-04-18T20:06:08.152Z,13.25
2023-04-18T20:08:37.616Z,13.50
2023-04-18T20:11:08.394Z,13.35
2023-04-18T20:13:38.356Z,15.27
2023-04-18T20:16:07.632Z,13.27
2023-04-18T20:18:37.781Z,13.80
2023-04-18T20:21:08.138Z,14.35
2023-04-18T20:23:36.755Z,13.55
2023-04-18T20:26:05.511Z,13.63
2023-04-18T20:28:34.245Z,12.57
2023-04-18T20:31:04.510Z,13.52
2023-04-18T20:33:33.150Z,13.75
2023-04-18T20:36:01.824Z,13.13
2023-04-18T20:38:30.318Z,12.82
2023-04-18T20:41:00.927Z,13.70
2023-04-18T20:43:29.585Z,12.95
2023-04-18T20:45:58.840Z,13.43
2023-04-18T20:48:28.841Z,12.15
2023-04-18T20:50:57.407Z,13.13
2023-04-18T20:53:27.184Z,13.00
2023-04-18T20:55:55.848Z,12.80
2023-04-18T20:58:24.554Z,13.15
2023-04-18T21:00:53.915Z,13.55
2023-04-18T21:03:22.652Z,12.98
2023-04-18T21:05:52.626Z,13.75
2023-04-18T21:08:21.210Z,13.07
2023-04-18T21:10:49.685Z,13.65
2023-04-18T21:13:18.169Z,12.30
2023-04-18T21:15:46.706Z,13.07
2023-04-18T21:18:15.286Z,12.70
2023-04-18T21:20:43.971Z,13.45
2023-04-18T21:23:13.884Z,13.43
2023-04-18T21:25:42.372Z,14.20
2023-04-18T21:28:10.850Z,14.38
2023-04-18T21:30:39.498Z,14.07
2023-04-18T21:33:07.963Z,13.25
2023-04-18T21:35:36.383Z,14.05
2023-04-18T21:38:04.864Z,12.68
2023-04-18T21:40:34.708Z,13.70
2023-04-18T21:43:03.128Z,13.95
2023-04-18T21:45:31.756Z,14.13
2023-04-18T21:48:00.424Z,13.15
2023-04-18T21:50:28.916Z,14.18
2023-04-18T21:52:57.646Z,14.35
2023-04-18T21:55:26.099Z,13.77
2023-04-18T21:57:55.993Z,13.35
2023-04-18T22:00:24.440Z,12.52
2023-04-18T22:02:52.955Z,13.00
2023-04-18T22:05:21.590Z,13.05
2023-04-18T22:07:57.615Z,13.10
2023-04-18T22:10:27.026Z,13.23
2023-04-18T22:12:56.827Z,12.68
2023-04-18T22:15:27.187Z,13.77
2023-04-18T22:17:56.057Z,12.95
2023-04-18T22:20:25.557Z,12.10
2023-04-18T22:22:54.148Z,11.85
2023-04-18T22:25:22.600Z,12.43
2023-04-18T22:27:51.038Z,12.45
2023-04-18T22:30:20.982Z,12.35
2023-04-18T22:32:49.647Z,12.10
2023-04-18T22:35:18.325Z,12.88
2023-04-18T22:37:46.740Z,11.68
2023-04-18T22:40:16.511Z,12.65
2023-04-18T22:42:44.995Z,12.68
2023-04-18T22:45:13.588Z,12.57
2023-04-18T22:47:43.472Z,12.02
2023-04-18T22:50:12.194Z,12.35
2023-04-18T22:52:40.706Z,12.95
2023-04-18T22:55:09.568Z,12.98
2023-04-18T22:57:37.972Z,12.43
2023-04-18T23:00:07.500Z,12.75
2023-04-18T23:02:36.016Z,13.63
2023-04-18T23:05:07.324Z,13.27
2023-04-18T23:07:35.745Z,12.25
2023-04-18T23:10:05.976Z,13.77
2023-04-18T23:12:34.404Z,13.57
2023-04-18T23:15:02.895Z,12.95
2023-04-18T23:17:31.361Z,13.32
2023-04-18T23:19:59.827Z,13.35
2023-04-18T23:22:30.342Z,12.98
2023-04-18T23:24:58.780Z,13.57
2023-04-18T23:27:27.262Z,12.80
2023-04-18T23:29:55.697Z,13.25
2023-04-18T23:32:24.271Z,13.60
2023-04-18T23:34:52.732Z,13.73
2023-04-18T23:37:21.558Z,14.10
2023-04-18T23:39:51.668Z,13.60
2023-04-18T23:42:20.101Z,14.13
2023-04-18T23:44:48.529Z,13.93
2023-04-18T23:47:17.087Z,14.57
2023-04-18T23:49:45.729Z,15.50
2023-04-18T23:52:14.509Z,14.77
2023-04-18T23:57:19.629Z,14.35
2023-04-18T23:59:48.105Z,14.32
